Time;durP1;ratioP1;P1;durP2;ratioP2;P2;SDS_P1;SDS_P2;PMS_P1;PMS_P2;Temp;Humidity;BMP_temperature;BMP_pressure;BME280_temperature;BME280_humidity;BME280_pressure;Samples;Min_cycle;Max_cycle;Signal;HPM_P1;HPM_P2
2022/03/21 00:01:04;;;;;;;274.20;121.25;;;4.00;49.50;;;;;;4994732;28;20101;-64
2022/03/21 00:03:30;;;;;;;251.70;115.63;;;3.50;50.50;;;;;;4994854;28;20105;-62
2022/03/21 00:05:58;;;;;;;210.95;99.78;;;3.30;51.00;;;;;;4994876;28;20065;-64
2022/03/21 00:08:24;;;;;;;253.15;122.28;;;3.30;49.90;;;;;;4994747;28;20054;-61
2022/03/21 00:10:51;;;;;;;249.52;118.25;;;3.40;50.20;;;;;;4994827;28;20027;-65
2022/03/21 00:13:18;;;;;;;216.13;106.18;;;3.40;49.90;;;;;;4994813;28;20054;-63
2022/03/21 00:15:45;;;;;;;249.82;123.97;;;3.50;49.70;;;;;;4949547;28;1318027;-62
2022/03/21 00:18:14;;;;;;;223.93;104.25;;;3.50;50.90;;;;;;4995661;28;20038;-62
2022/03/21 00:20:44;;;;;;;201.85;93.60;;;3.30;51.40;;;;;;4995733;28;20102;-64
2022/03/21 00:23:11;;;;;;;207.50;94.68;;;3.20;51.60;;;;;;4995478;28;20547;-60
2022/03/21 00:25:37;;;;;;;207.20;95.25;;;3.00;52.00;;;;;;4995593;28;20022;-63
2022/03/21 00:28:07;;;;;;;181.00;84.00;;;3.00;52.70;;;;;;4995571;28;20057;-62
2022/03/21 00:30:34;;;;;;;181.40;86.28;;;2.80;52.70;;;;;;4995169;28;20033;-63
2022/03/21 00:33:00;;;;;;;221.98;101.07;;;2.90;52.80;;;;;;4995290;28;20038;-65
2022/03/21 00:35:27;;;;;;;242.35;99.68;;;2.80;52.60;;;;;;4995309;28;20377;-61
2022/03/21 00:37:53;;;;;;;189.82;90.05;;;2.60;53.80;;;;;;4995199;28;20025;-63
2022/03/21 00:40:18;;;;;;;194.48;86.90;;;2.50;54.30;;;;;;4995295;28;20385;-64
2022/03/21 00:42:46;;;;;;;197.10;88.63;;;2.40;54.20;;;;;;4994454;28;20027;-62
2022/03/21 00:45:24;;;;;;;175.18;80.90;;;2.30;54.70;;;;;;4994863;28;20018;-63
2022/03/21 00:47:50;;;;;;;163.70;73.57;;;2.30;54.90;;;;;;4995368;28;20041;-63
2022/03/21 00:50:17;;;;;;;163.15;72.93;;;2.50;54.10;;;;;;4995039;28;20069;-64
2022/03/21 00:52:49;;;;;;;152.52;69.78;;;2.60;54.00;;;;;;4994837;28;20030;-64
2022/03/21 00:55:18;;;;;;;140.68;63.10;;;2.60;53.60;;;;;;4994783;28;20037;-61
2022/03/21 00:57:44;;;;;;;111.72;54.80;;;2.60;53.70;;;;;;4994715;28;20027;-63
2022/03/21 01:00:13;;;;;;;109.97;52.17;;;2.60;54.00;;;;;;4994787;28;20114;-65
2022/03/21 01:02:40;;;;;;;97.07;46.50;;;2.80;53.30;;;;;;4995131;28;20027;-60
2022/03/21 01:05:07;;;;;;;124.95;57.90;;;2.90;51.40;;;;;;4994794;28;20424;-61
2022/03/21 01:07:34;;;;;;;121.90;57.80;;;2.90;51.80;;;;;;4993424;28;20462;-62
2022/03/21 01:10:00;;;;;;;106.00;51.30;;;2.90;52.40;;;;;;4994679;28;20536;-63
2022/03/21 01:12:27;;;;;;;95.90;45.65;;;2.80;52.70;;;;;;4994371;28;20027;-61
2022/03/21 01:14:53;;;;;;;118.35;57.67;;;2.90;52.20;;;;;;4994300;28;20137;-63
2022/03/21 01:17:18;;;;;;;105.15;52.30;;;2.90;52.70;;;;;;4994561;28;20105;-61
2022/03/21 01:19:44;;;;;;;129.48;58.35;;;2.70;53.50;;;;;;4994517;28;20359;-63
2022/03/21 01:22:10;;;;;;;93.13;46.67;;;2.40;54.20;;;;;;4994407;28;20030;-61
2022/03/21 01:24:38;;;;;;;88.32;43.45;;;2.20;54.60;;;;;;4994562;28;20033;-63
2022/03/21 01:27:05;;;;;;;71.97;37.92;;;2.20;54.20;;;;;;4994572;28;20354;-63
2022/03/21 01:29:31;;;;;;;73.07;35.95;;;2.40;54.10;;;;;;4994214;28;20026;-64
2022/03/21 01:31:57;;;;;;;75.00;39.45;;;2.60;53.50;;;;;;4994348;28;20034;-62
2022/03/21 01:34:23;;;;;;;86.88;42.88;;;2.70;53.20;;;;;;4994282;28;20022;-63
2022/03/21 01:36:49;;;;;;;79.63;40.75;;;2.60;53.40;;;;;;5025703;28;20023;-64
2022/03/21 01:39:14;;;;;;;78.38;39.78;;;2.50;53.50;;;;;;4994173;28;20049;-61
2022/03/21 01:41:40;;;;;;;77.47;39.65;;;2.40;53.30;;;;;;4993989;28;20477;-64
2022/03/21 01:44:08;;;;;;;63.25;33.58;;;2.40;53.70;;;;;;4994105;28;20027;-62
2022/03/21 01:46:35;;;;;;;55.42;31.17;;;2.40;54.00;;;;;;4994074;28;20057;-61
2022/03/21 01:49:02;;;;;;;58.22;30.60;;;2.60;54.50;;;;;;4994088;28;20022;-61
2022/03/21 01:51:29;;;;;;;59.28;31.45;;;2.60;53.10;;;;;;4993966;28;20026;-62
2022/03/21 01:56:42;;;;;;;57.25;30.55;;;2.80;51.30;;;;;;4993722;28;20021;-63
2022/03/21 01:59:09;;;;;;;65.38;33.20;;;2.90;50.70;;;;;;4993879;28;20018;-61
2022/03/21 02:01:36;;;;;;;59.05;28.42;;;2.80;51.80;;;;;;4993908;28;20072;-62
2022/03/21 02:04:02;;;;;;;56.58;29.15;;;2.70;51.90;;;;;;4993941;28;20022;-62
2022/03/21 02:06:28;;;;;;;76.65;38.45;;;2.70;52.40;;;;;;4993810;28;20102;-62
2022/03/21 02:08:58;;;;;;;58.58;28.98;;;2.60;53.00;;;;;;4993938;28;20054;-65
2022/03/21 02:11:29;;;;;;;72.38;36.63;;;2.50;53.20;;;;;;4993577;28;20038;-64
2022/03/21 02:13:59;;;;;;;66.20;33.85;;;2.50;52.80;;;;;;4994114;28;20058;-61
2022/03/21 02:16:26;;;;;;;87.80;44.15;;;2.60;52.70;;;;;;4993857;28;20512;-61
2022/03/21 02:18:53;;;;;;;73.70;39.45;;;2.50;53.40;;;;;;4993764;28;20441;-64
2022/03/21 02:21:38;;;;;;;91.35;43.53;;;2.30;54.00;;;;;;4993838;28;20022;-62
2022/03/21 02:24:14;;;;;;;74.47;38.20;;;2.20;54.10;;;;;;4993549;28;20034;-62
2022/03/21 02:26:41;;;;;;;65.40;35.83;;;2.30;53.70;;;;;;4993755;28;20109;-61
2022/03/21 02:29:08;;;;;;;59.22;30.65;;;2.40;53.70;;;;;;4993794;28;20023;-64
2022/03/21 02:31:35;;;;;;;47.08;27.38;;;2.50;52.00;;;;;;4993512;28;20031;-64
2022/03/21 02:34:01;;;;;;;47.10;26.15;;;2.50;51.40;;;;;;4993635;28;20035;-61
2022/03/21 02:36:28;;;;;;;80.05;37.50;;;2.60;51.30;;;;;;4993608;28;20041;-63
2022/03/21 02:38:58;;;;;;;76.40;36.65;;;2.50;52.20;;;;;;4993539;28;20019;-64
2022/03/21 02:41:23;;;;;;;72.47;32.70;;;2.30;52.70;;;;;;4993561;28;20022;-63
2022/03/21 02:43:57;;;;;;;56.22;27.73;;;2.20;52.90;;;;;;4993537;28;20024;-62
2022/03/21 02:46:24;;;;;;;65.20;32.95;;;2.30;53.30;;;;;;4992228;28;20033;-62
2022/03/21 02:48:52;;;;;;;60.53;31.45;;;2.40;53.30;;;;;;4993558;28;20026;-65
2022/03/21 02:51:21;;;;;;;60.75;31.02;;;2.30;53.70;;;;;;4993508;28;20026;-62
2022/03/21 02:53:51;;;;;;;73.10;35.67;;;2.30;53.90;;;;;;4993218;28;20026;-64
2022/03/21 02:56:22;;;;;;;73.35;38.17;;;2.10;54.90;;;;;;4993527;28;20449;-64
2022/03/21 02:58:49;;;;;;;69.65;34.67;;;2.00;55.50;;;;;;4993465;28;20019;-62
2022/03/21 03:01:17;;;;;;;64.35;33.08;;;1.90;55.80;;;;;;4993354;28;20471;-62
2022/03/21 03:03:43;;;;;;;68.18;35.10;;;1.90;56.00;;;;;;4993446;28;20053;-62
2022/03/21 03:06:09;;;;;;;55.20;29.20;;;1.90;56.80;;;;;;4996081;28;20018;-65
2022/03/21 03:08:37;;;;;;;54.45;29.77;;;1.80;56.30;;;;;;4996725;28;20029;-63
2022/03/21 03:11:03;;;;;;;55.00;30.73;;;1.90;55.90;;;;;;4996920;28;20030;-62
2022/03/21 03:13:28;;;;;;;53.75;27.92;;;1.90;56.10;;;;;;4996837;28;20033;-64
2022/03/21 03:15:54;;;;;;;42.55;23.27;;;1.90;55.90;;;;;;4996608;28;20125;-63
2022/03/21 03:18:20;;;;;;;45.38;23.63;;;2.00;55.90;;;;;;4996906;28;20027;-62
2022/03/21 03:20:58;;;;;;;39.30;23.00;;;2.00;55.80;;;;;;4996811;28;20053;-62
2022/03/21 03:23:26;;;;;;;49.33;26.23;;;2.10;55.40;;;;;;4996572;28;20544;-62
2022/03/21 03:25:58;;;;;;;56.55;27.85;;;2.10;55.20;;;;;;4996623;28;20461;-61
2022/03/21 03:28:24;;;;;;;45.72;24.25;;;1.90;55.50;;;;;;4996491;28;20022;-60
2022/03/21 03:30:51;;;;;;;43.40;22.48;;;1.80;56.10;;;;;;4996444;28;20030;-63
2022/03/21 03:33:17;;;;;;;36.20;20.83;;;1.80;56.30;;;;;;4996590;28;20026;-61
2022/03/21 03:35:42;;;;;;;33.47;18.75;;;1.80;55.80;;;;;;4996396;28;20045;-62
2022/03/21 03:38:08;;;;;;;40.45;21.58;;;1.90;56.10;;;;;;4996179;28;20030;-61
2022/03/21 03:40:34;;;;;;;49.80;24.83;;;2.00;55.90;;;;;;4996421;28;20033;-62
2022/03/21 03:43:00;;;;;;;43.53;22.85;;;1.90;55.00;;;;;;4996346;28;20038;-64
2022/03/21 03:45:26;;;;;;;48.90;23.75;;;1.80;54.80;;;;;;4996181;28;20069;-64
2022/03/21 03:47:52;;;;;;;61.47;31.63;;;1.90;55.00;;;;;;4996215;28;20458;-65
2022/03/21 03:50:19;;;;;;;68.63;33.47;;;1.80;55.70;;;;;;4996233;28;20018;-62
2022/03/21 03:52:46;;;;;;;64.50;34.58;;;1.60;56.40;;;;;;4995829;28;20077;-62
2022/03/21 03:55:17;;;;;;;73.10;38.42;;;1.40;57.20;;;;;;4996103;28;20037;-64
2022/03/21 03:57:46;;;;;;;69.97;37.03;;;1.40;57.90;;;;;;4996252;28;20061;-60
2022/03/21 04:00:14;;;;;;;72.97;37.10;;;1.20;59.10;;;;;;4995949;28;20022;-62
2022/03/21 04:05:25;;;;;;;76.88;39.03;;;1.10;59.70;;;;;;4996110;28;20030;-63
2022/03/21 04:07:51;;;;;;;72.95;36.97;;;1.00;59.90;;;;;;4995737;28;20464;-64
2022/03/21 04:10:17;;;;;;;66.13;35.28;;;1.00;60.10;;;;;;4995887;28;20499;-61
2022/03/21 04:12:47;;;;;;;68.78;34.40;;;0.90;60.70;;;;;;4996061;28;20038;-64
2022/03/21 04:15:13;;;;;;;70.95;36.08;;;0.90;61.30;;;;;;4995558;28;20572;-64
2022/03/21 04:17:39;;;;;;;75.68;36.10;;;0.80;61.20;;;;;;4994549;28;20019;-61
2022/03/21 04:20:05;;;;;;;69.45;36.75;;;0.80;61.10;;;;;;4995495;28;20024;-64
2022/03/21 04:22:33;;;;;;;69.03;35.53;;;0.80;61.20;;;;;;4995387;28;20425;-61
2022/03/21 04:24:58;;;;;;;65.72;35.53;;;0.80;60.80;;;;;;4995594;28;20129;-63
2022/03/21 04:27:24;;;;;;;69.72;36.65;;;0.90;61.50;;;;;;4995615;28;20515;-62
2022/03/21 04:29:50;;;;;;;75.00;38.13;;;0.80;61.50;;;;;;4995468;28;20030;-62
2022/03/21 04:32:16;;;;;;;62.65;34.65;;;0.80;61.50;;;;;;4995327;28;20492;-63
2022/03/21 04:34:41;;;;;;;98.05;42.85;;;0.80;61.00;;;;;;4995231;28;20054;-64
2022/03/21 04:37:07;;;;;;;85.90;39.42;;;0.80;60.90;;;;;;4995110;28;20027;-64
2022/03/21 04:39:33;;;;;;;60.67;31.40;;;0.90;60.90;;;;;;4995260;28;20022;-65
2022/03/21 04:42:00;;;;;;;62.63;32.50;;;0.90;60.80;;;;;;4995203;28;20034;-62
2022/03/21 04:44:26;;;;;;;107.03;49.33;;;1.00;60.50;;;;;;4995157;28;20080;-61
2022/03/21 04:46:52;;;;;;;166.82;73.82;;;0.90;60.50;;;;;;4995133;28;20097;-62
2022/03/21 04:49:18;;;;;;;108.70;52.75;;;0.70;61.00;;;;;;4995220;28;20058;-60
2022/03/21 04:51:44;;;;;;;106.35;48.88;;;0.70;61.50;;;;;;4994661;28;20076;-61
2022/03/21 04:54:09;;;;;;;97.70;46.40;;;0.90;61.30;;;;;;4995017;28;20456;-60
2022/03/21 04:56:35;;;;;;;96.97;43.58;;;1.00;58.90;;;;;;4994883;28;20146;-63
2022/03/21 04:59:01;;;;;;;84.03;39.80;;;1.10;58.90;;;;;;4994754;28;20041;-64
2022/03/21 05:01:27;;;;;;;70.78;36.72;;;1.20;59.00;;;;;;4994986;28;20496;-65
2022/03/21 05:03:53;;;;;;;73.35;37.55;;;1.30;57.90;;;;;;4994772;28;20018;-63
2022/03/21 05:06:19;;;;;;;78.15;36.72;;;1.40;57.40;;;;;;4994489;28;20412;-64
2022/03/21 05:08:45;;;;;;;79.25;37.85;;;1.40;57.30;;;;;;4994695;28;20030;-61
2022/03/21 05:11:11;;;;;;;81.63;37.95;;;1.40;57.70;;;;;;4994592;28;20030;-64
2022/03/21 05:13:37;;;;;;;85.32;37.80;;;1.50;57.70;;;;;;4994545;28;20026;-63
2022/03/21 05:16:05;;;;;;;71.70;34.40;;;1.50;57.00;;;;;;4994368;28;20505;-61
2022/03/21 05:18:34;;;;;;;59.85;31.52;;;1.60;56.50;;;;;;4994301;28;20469;-64
2022/03/21 05:21:00;;;;;;;54.22;27.80;;;1.60;56.30;;;;;;4994701;28;20050;-60
2022/03/21 05:31:38;;;;;;;48.83;26.02;;;1.70;55.50;;;;;;4994239;28;20547;-61
2022/03/21 05:36:50;;;;;;;47.75;26.85;;;1.70;54.90;;;;;;4992977;28;20425;-62
2022/03/21 05:39:16;;;;;;;50.35;27.60;;;1.80;54.50;;;;;;4994298;28;20073;-62
2022/03/21 05:41:42;;;;;;;53.65;28.92;;;1.80;54.70;;;;;;4994170;28;20036;-63
2022/03/21 05:44:09;;;;;;;73.70;37.65;;;1.80;54.30;;;;;;4994318;28;20105;-64
2022/03/21 05:46:35;;;;;;;122.10;55.55;;;1.80;54.50;;;;;;4994000;28;20026;-63
2022/03/21 05:49:01;;;;;;;78.43;40.08;;;1.70;56.00;;;;;;4993939;28;20022;-64
2022/03/21 05:51:30;;;;;;;68.65;36.67;;;1.70;56.20;;;;;;4993728;28;20500;-63
2022/03/21 05:53:58;;;;;;;64.35;34.40;;;1.80;55.40;;;;;;4994015;28;20029;-60
2022/03/21 05:56:25;;;;;;;67.63;33.95;;;1.90;55.20;;;;;;4993769;28;20401;-61
2022/03/21 05:58:52;;;;;;;60.20;32.20;;;2.00;54.70;;;;;;4993785;28;20427;-64
2022/03/21 06:01:21;;;;;;;130.50;62.90;;;2.00;54.60;;;;;;4993083;28;20453;-65
2022/03/21 06:03:48;;;;;;;357.38;173.75;;;2.20;55.20;;;;;;4992904;28;20026;-62
2022/03/21 06:06:15;;;;;;;370.55;182.43;;;1.90;57.00;;;;;;4995513;28;20026;-61
2022/03/21 06:08:41;;;;;;;352.42;177.20;;;1.60;58.50;;;;;;5020046;28;20402;-63
2022/03/21 06:11:08;;;;;;;467.42;229.90;;;1.50;58.80;;;;;;5022692;28;20018;-61
2022/03/21 06:13:41;;;;;;;466.70;234.45;;;1.40;59.00;;;;;;5009434;28;20034;-66
2022/03/21 06:16:08;;;;;;;422.20;216.20;;;1.40;59.20;;;;;;5008434;28;20030;-59
2022/03/21 06:18:35;;;;;;;441.58;226.20;;;1.30;60.30;;;;;;5004675;28;20029;-58
2022/03/21 06:21:02;;;;;;;417.23;213.73;;;1.70;60.10;;;;;;5014108;28;20029;-65
2022/03/21 06:23:28;;;;;;;387.55;191.40;;;4.30;55.10;;;;;;5018434;28;21327;-60
2022/03/21 06:25:54;;;;;;;414.75;209.13;;;6.70;48.70;;;;;;5016151;28;20026;-63
2022/03/21 06:28:21;;;;;;;432.35;228.05;;;8.50;43.80;;;;;;5019796;28;20042;-62
2022/03/21 06:30:50;;;;;;;456.63;256.77;;;9.70;42.20;;;;;;5023231;28;20033;-61
2022/03/21 06:33:16;;;;;;;494.83;285.85;;;10.60;40.70;;;;;;5021245;28;20121;-63
2022/03/21 06:35:43;;;;;;;458.23;266.92;;;11.40;38.50;;;;;;5009839;28;20031;-67
2022/03/21 06:38:10;;;;;;;411.08;241.15;;;11.70;38.00;;;;;;5002778;28;20044;-55
2022/03/21 06:40:37;;;;;;;418.65;250.02;;;12.00;37.30;;;;;;5010118;28;20038;-62
2022/03/21 06:43:03;;;;;;;387.45;224.15;;;11.80;37.60;;;;;;5008239;28;20022;-52
2022/03/21 06:45:28;;;;;;;362.02;207.77;;;12.30;36.80;;;;;;5014204;28;20528;-66
2022/03/21 06:47:54;;;;;;;312.67;173.80;;;13.10;35.80;;;;;;5013156;28;20022;-60
2022/03/21 06:50:20;;;;;;;275.40;154.73;;;13.70;35.10;;;;;;4997494;28;20034;-63
2022/03/21 06:52:46;;;;;;;238.27;133.55;;;14.30;33.80;;;;;;4999839;28;20044;-63
2022/03/21 06:55:12;;;;;;;213.10;123.05;;;14.80;32.80;;;;;;5001246;28;20026;-68
2022/03/21 06:57:41;;;;;;;195.55;113.70;;;15.50;32.90;;;;;;4998430;28;20030;-64
2022/03/21 07:00:08;;;;;;;178.50;107.35;;;16.30;31.40;;;;;;4998849;28;20025;-59
2022/03/21 07:02:34;;;;;;;221.02;123.38;;;16.50;30.50;;;;;;5006540;28;20030;-68
2022/03/21 07:05:00;;;;;;;226.85;130.45;;;16.70;30.60;;;;;;5003331;28;20036;-66
2022/03/21 07:07:26;;;;;;;204.60;117.63;;;17.00;30.50;;;;;;5004413;28;20061;-64
2022/03/21 07:09:52;;;;;;;190.13;112.25;;;17.80;30.40;;;;;;5005246;28;20036;-65
2022/03/21 07:12:23;;;;;;;181.63;105.47;;;18.60;29.50;;;;;;5002676;28;20405;-66
2022/03/21 07:14:50;;;;;;;153.65;93.75;;;19.40;28.70;;;;;;5004814;28;20558;-62
2022/03/21 07:17:20;;;;;;;137.98;87.28;;;20.10;27.80;;;;;;5033068;28;20088;-58
2022/03/21 07:19:46;;;;;;;127.18;79.90;;;20.50;27.80;;;;;;5029495;28;20042;-59
2022/03/21 07:22:13;;;;;;;120.80;74.22;;;20.40;27.00;;;;;;5005507;28;20025;-61
2022/03/21 07:24:39;;;;;;;108.88;70.43;;;20.70;26.70;;;;;;5019693;28;20125;-65
2022/03/21 07:27:05;;;;;;;101.88;62.40;;;21.40;26.20;;;;;;5017328;28;20037;-63
2022/03/21 07:29:31;;;;;;;80.60;49.85;;;22.20;25.90;;;;;;5016092;28;20029;-57
2022/03/21 07:31:59;;;;;;;76.47;48.83;;;22.80;25.80;;;;;;5004577;28;20041;-63
2022/03/21 07:34:25;;;;;;;71.00;44.85;;;22.90;25.80;;;;;;5003057;28;20038;-62
2022/03/21 07:36:51;;;;;;;62.40;39.05;;;22.70;25.50;;;;;;5010590;28;20037;-63
2022/03/21 07:39:17;;;;;;;50.97;34.08;;;22.40;25.30;;;;;;5014199;28;20088;-56
2022/03/21 07:41:43;;;;;;;51.15;33.17;;;22.60;25.40;;;;;;5014522;28;20058;-62
2022/03/21 07:44:10;;;;;;;53.22;33.50;;;22.70;24.80;;;;;;5014188;28;20029;-56
2022/03/21 07:49:20;;;;;;;56.30;39.42;;;23.90;24.90;;;;;;4995599;28;20068;-54
2022/03/21 07:51:46;;;;;;;61.15;40.30;;;24.30;24.50;;;;;;4994238;28;20077;-61
2022/03/21 07:54:16;;;;;;;61.30;40.88;;;23.90;24.70;;;;;;4997504;28;20087;-63
2022/03/21 07:56:42;;;;;;;63.28;38.15;;;24.00;25.00;;;;;;4999603;28;20025;-59
2022/03/21 07:59:08;;;;;;;57.83;36.53;;;23.40;25.70;;;;;;5021309;28;20029;-59
2022/03/21 08:01:34;;;;;;;54.33;35.63;;;23.40;25.00;;;;;;5011964;28;20037;-60
2022/03/21 08:04:03;;;;;;;46.42;31.75;;;23.90;24.70;;;;;;5009203;28;20020;-60
2022/03/21 08:06:29;;;;;;;46.42;32.20;;;24.00;24.40;;;;;;5001430;28;20026;-60
2022/03/21 08:08:55;;;;;;;47.47;31.80;;;24.10;24.60;;;;;;5008111;28;20025;-58
2022/03/21 08:11:22;;;;;;;43.80;30.15;;;24.30;24.30;;;;;;5023067;28;20083;-57
2022/03/21 08:13:51;;;;;;;41.28;29.60;;;24.30;24.50;;;;;;5010930;28;20719;-58
2022/03/21 08:16:21;;;;;;;42.05;28.85;;;24.70;24.40;;;;;;5011825;28;20558;-60
2022/03/21 08:18:49;;;;;;;45.97;30.55;;;25.30;24.00;;;;;;5020742;28;20033;-59
2022/03/21 08:21:15;;;;;;;35.92;28.30;;;25.20;23.50;;;;;;5015367;28;20025;-57
2022/03/21 08:23:42;;;;;;;41.15;29.60;;;25.30;23.60;;;;;;5016177;28;20495;-59
2022/03/21 08:26:10;;;;;;;39.95;29.35;;;25.20;23.80;;;;;;5020869;28;20510;-62
2022/03/21 08:28:46;;;;;;;37.55;27.13;;;25.30;23.30;;;;;;5022545;28;20087;-62
2022/03/21 08:31:13;;;;;;;55.55;38.25;;;25.60;23.50;;;;;;5018766;28;20021;-63
2022/03/21 08:33:40;;;;;;;50.17;34.75;;;25.60;23.40;;;;;;5006530;28;20030;-62
2022/03/21 08:36:06;;;;;;;68.68;45.25;;;25.70;23.40;;;;;;5019008;28;20025;-62
2022/03/21 08:38:32;;;;;;;82.65;47.97;;;25.70;23.30;;;;;;5014684;28;20476;-62
2022/03/21 08:40:58;;;;;;;68.60;43.75;;;25.60;23.80;;;;;;5024990;28;20044;-62
2022/03/21 08:43:24;;;;;;;58.63;38.65;;;25.00;24.00;;;;;;5028477;28;20064;-65
2022/03/21 08:45:51;;;;;;;104.63;64.38;;;24.60;24.20;;;;;;5029185;28;20025;-66
2022/03/21 08:48:17;;;;;;;64.03;40.83;;;24.90;23.90;;;;;;5014864;28;20026;-62
2022/03/21 08:50:43;;;;;;;61.72;41.78;;;24.70;24.60;;;;;;5004624;28;20453;-63
2022/03/21 08:53:10;;;;;;;98.95;66.38;;;24.30;24.10;;;;;;5003095;28;20368;-65
2022/03/21 08:55:36;;;;;;;72.28;48.67;;;24.00;24.50;;;;;;4990448;28;20549;-63
2022/03/21 08:58:01;;;;;;;65.45;44.05;;;24.00;24.00;;;;;;4998990;28;20120;-61
2022/03/21 09:00:27;;;;;;;56.67;40.42;;;23.50;24.70;;;;;;4989485;28;20058;-65
2022/03/21 09:02:54;;;;;;;51.58;37.88;;;22.90;25.40;;;;;;4988881;28;20150;-64
2022/03/21 09:05:21;;;;;;;50.33;36.72;;;22.70;24.80;;;;;;4993536;28;20142;-64
2022/03/21 09:07:47;;;;;;;49.83;34.92;;;22.30;24.80;;;;;;4996972;28;20030;-63
2022/03/21 09:10:14;;;;;;;48.53;36.00;;;21.60;25.30;;;;;;5007904;28;20029;-63
2022/03/21 09:12:43;;;;;;;45.25;33.55;;;20.40;27.10;;;;;;5011038;28;20032;-64
2022/03/21 09:15:09;;;;;;;43.05;34.50;;;20.40;26.80;;;;;;5017373;28;20038;-64
2022/03/21 09:17:38;;;;;;;41.33;31.60;;;20.40;25.80;;;;;;5003228;28;20030;-62
2022/03/21 09:20:06;;;;;;;38.97;31.38;;;20.30;26.10;;;;;;4994154;28;20365;-63
2022/03/21 09:22:32;;;;;;;31.73;25.73;;;20.00;27.00;;;;;;5008302;28;20072;-64
2022/03/21 09:24:58;;;;;;;32.28;24.40;;;19.70;25.30;;;;;;5014224;28;20032;-63
2022/03/21 09:27:24;;;;;;;35.42;26.10;;;19.40;28.40;;;;;;5019663;28;20091;-64
2022/03/21 09:29:50;;;;;;;37.67;26.17;;;19.10;28.00;;;;;;5015914;28;20481;-63
2022/03/21 09:32:17;;;;;;;33.65;25.42;;;19.00;28.60;;;;;;5020656;28;20040;-63
2022/03/21 09:34:44;;;;;;;35.72;23.10;;;19.20;27.60;;;;;;5015824;28;20644;-65
2022/03/21 09:37:10;;;;;;;30.40;22.98;;;19.50;27.60;;;;;;5022003;28;20041;-62
2022/03/21 09:39:35;;;;;;;26.67;21.83;;;19.50;28.40;;;;;;5015441;28;20416;-61
2022/03/21 09:42:02;;;;;;;27.73;22.38;;;19.50;27.80;;;;;;5019690;28;20018;-61
2022/03/21 09:44:28;;;;;;;32.65;24.40;;;19.80;26.00;;;;;;5017763;28;20100;-69
2022/03/21 09:46:55;;;;;;;32.38;24.42;;;19.70;26.30;;;;;;5021392;28;20456;-64
2022/03/21 09:49:26;;;;;;;30.88;22.30;;;18.90;27.10;;;;;;5012335;28;20053;-67
2022/03/21 09:51:54;;;;;;;26.55;20.35;;;18.30;26.10;;;;;;5020365;28;20036;-64
2022/03/21 09:54:20;;;;;;;24.00;18.42;;;18.70;27.10;;;;;;5030347;28;20075;-63
2022/03/21 09:56:46;;;;;;;20.75;15.05;;;18.70;25.70;;;;;;5024781;28;20767;-64
2022/03/21 09:59:12;;;;;;;18.45;15.18;;;19.00;26.50;;;;;;5027563;28;20036;-65
2022/03/21 10:01:38;;;;;;;19.17;14.85;;;18.90;26.40;;;;;;5028537;28;20105;-63
2022/03/21 10:04:06;;;;;;;15.20;11.77;;;18.30;27.00;;;;;;5028824;28;20030;-65
2022/03/21 10:06:43;;;;;;;12.60;11.18;;;18.40;27.60;;;;;;5027185;28;20383;-64
2022/03/21 10:09:12;;;;;;;16.15;11.88;;;18.80;25.60;;;;;;5028535;28;20025;-69
2022/03/21 10:11:56;;;;;;;13.35;11.05;;;19.50;25.40;;;;;;5028789;28;20022;-64
2022/03/21 10:14:36;;;;;;;14.60;11.98;;;20.10;25.10;;;;;;5029354;28;20099;-66
2022/03/21 10:17:12;;;;;;;17.35;12.95;;;20.80;25.00;;;;;;5033491;28;20030;-65
2022/03/21 10:19:52;;;;;;;15.07;12.25;;;21.20;24.90;;;;;;5035509;28;20026;-67
2022/03/21 10:22:34;;;;;;;15.05;12.45;;;21.10;26.20;;;;;;5019952;28;20402;-67
2022/03/21 10:25:08;;;;;;;14.13;11.55;;;20.70;25.20;;;;;;5022522;28;20021;-66
2022/03/21 10:27:42;;;;;;;15.68;11.48;;;20.20;26.90;;;;;;5032148;28;20037;-69
2022/03/21 10:30:10;;;;;;;10.27;9.18;;;20.20;26.60;;;;;;5024225;28;20065;-65
2022/03/21 10:32:37;;;;;;;9.68;7.50;;;20.40;27.40;;;;;;5004125;28;20030;-68
2022/03/21 10:35:14;;;;;;;7.78;7.03;;;20.60;25.50;;;;;;5002998;28;20037;-64
2022/03/21 10:37:52;;;;;;;13.15;9.35;;;20.60;25.80;;;;;;4998686;28;20637;-66
2022/03/21 10:40:31;;;;;;;10.40;7.75;;;20.90;27.50;;;;;;5006715;28;20107;-67
2022/03/21 10:43:16;;;;;;;6.78;6.18;;;21.30;26.60;;;;;;5016922;28;20030;-64
2022/03/21 10:45:46;;;;;;;7.18;6.40;;;21.30;26.00;;;;;;5012494;28;20349;-67
2022/03/21 10:48:25;;;;;;;8.20;6.72;;;21.30;26.10;;;;;;5012074;28;20018;-68
2022/03/21 10:50:54;;;;;;;8.70;6.47;;;21.10;25.50;;;;;;5007711;28;20058;-69
2022/03/21 10:53:20;;;;;;;6.95;5.88;;;21.30;25.40;;;;;;4999746;28;20084;-69
2022/03/21 10:55:49;;;;;;;6.55;5.88;;;21.30;25.50;;;;;;5002676;28;20061;-65
2022/03/21 10:58:38;;;;;;;8.15;6.60;;;21.30;26.40;;;;;;5013952;28;20039;-67
2022/03/21 11:01:17;;;;;;;6.95;6.00;;;21.50;26.50;;;;;;5012294;28;20512;-70
2022/03/21 11:03:51;;;;;;;8.00;7.20;;;21.40;26.10;;;;;;5014185;28;20025;-65
2022/03/21 11:06:18;;;;;;;8.10;7.22;;;21.20;25.30;;;;;;5018201;28;20104;-70
2022/03/21 11:08:51;;;;;;;7.72;6.80;;;21.10;26.00;;;;;;5029724;28;20076;-68
2022/03/21 11:11:17;;;;;;;7.90;6.82;;;21.00;26.50;;;;;;5014083;28;20022;-68
2022/03/21 11:13:43;;;;;;;7.53;6.68;;;21.10;25.80;;;;;;5015653;28;20460;-68
2022/03/21 11:16:09;;;;;;;8.13;6.75;;;21.20;27.80;;;;;;5014947;28;20488;-68
2022/03/21 11:18:36;;;;;;;7.93;6.57;;;21.40;24.80;;;;;;5019201;28;20120;-69
2022/03/21 11:21:02;;;;;;;7.72;6.65;;;21.40;25.20;;;;;;5015719;28;20026;-68
2022/03/21 11:23:30;;;;;;;9.20;6.53;;;21.50;25.00;;;;;;5021513;28;20035;-67
2022/03/21 11:26:03;;;;;;;7.85;6.85;;;21.80;25.80;;;;;;5031394;28;20472;-67
2022/03/21 11:28:37;;;;;;;10.35;7.63;;;21.70;25.50;;;;;;5022017;28;20097;-65
2022/03/21 11:31:34;;;;;;;7.88;6.85;;;21.80;25.00;;;;;;5013239;28;20029;-70
2022/03/21 11:34:26;;;;;;;12.65;9.68;;;21.20;25.30;;;;;;5046589;28;20426;-63
2022/03/21 11:36:56;;;;;;;10.25;8.15;;;21.20;23.80;;;;;;5030202;28;20091;-65
2022/03/21 11:39:23;;;;;;;12.07;8.57;;;21.00;24.20;;;;;;5012156;28;20101;-60
2022/03/21 11:42:07;;;;;;;10.88;8.30;;;20.20;24.00;;;;;;5012060;28;20100;-62
2022/03/21 11:44:33;;;;;;;9.43;7.72;;;20.00;23.80;;;;;;5011743;28;20384;-63
2022/03/21 11:47:28;;;;;;;11.35;6.80;;;20.30;26.10;;;;;;5010535;28;20033;-63
2022/03/21 11:49:55;;;;;;;7.43;6.22;;;20.70;26.00;;;;;;5009079;28;20034;-63
2022/03/21 11:52:22;;;;;;;7.07;5.60;;;21.20;25.70;;;;;;5008940;28;20511;-63
2022/03/21 11:54:48;;;;;;;5.85;5.35;;;21.20;25.80;;;;;;5013720;28;20025;-63
2022/03/21 11:57:17;;;;;;;6.80;6.10;;;21.10;25.80;;;;;;5028810;28;20029;-63
2022/03/21 11:59:43;;;;;;;6.13;5.53;;;21.50;25.40;;;;;;5031874;28;20122;-64
2022/03/21 12:02:12;;;;;;;6.93;5.45;;;21.70;25.80;;;;;;5017948;28;20385;-65
2022/03/21 12:04:42;;;;;;;8.38;5.68;;;21.80;26.90;;;;;;5021720;28;20388;-63
2022/03/21 12:07:14;;;;;;;6.78;6.10;;;21.50;25.10;;;;;;5033149;28;20499;-63
2022/03/21 12:09:44;;;;;;;6.78;6.18;;;21.30;24.20;;;;;;5029976;28;20614;-63
2022/03/21 12:12:11;;;;;;;6.50;5.80;;;20.80;24.20;;;;;;5014604;28;20237;-62
2022/03/21 12:14:41;;;;;;;5.55;5.05;;;21.00;24.50;;;;;;5017115;28;20045;-65
2022/03/21 12:17:10;;;;;;;8.20;5.70;;;21.30;26.00;;;;;;5022471;28;20529;-73
2022/03/21 12:19:45;;;;;;;7.47;6.75;;;21.70;25.40;;;;;;5023373;28;20022;-69
2022/03/21 12:25:07;;;;;;;8.38;7.10;;;21.80;24.40;;;;;;5012331;28;20026;-65
2022/03/21 12:27:43;;;;;;;7.70;6.90;;;21.60;24.00;;;;;;5011466;28;20014;-69
2022/03/21 12:32:47;;;;;;;7.32;6.63;;;21.20;25.10;;;;;;5009268;28;20079;-63
2022/03/21 12:35:31;;;;;;;9.07;7.35;;;21.20;23.50;;;;;;5007166;28;20057;-68
2022/03/21 12:38:22;;;;;;;8.75;6.90;;;21.10;22.90;;;;;;5003660;28;20022;-66
2022/03/21 12:40:51;;;;;;;10.38;7.70;;;20.70;24.40;;;;;;5005140;28;20037;-66
2022/03/21 12:43:24;;;;;;;11.02;8.15;;;20.60;23.60;;;;;;5008411;28;20025;-63
2022/03/21 12:46:04;;;;;;;8.70;6.88;;;20.40;23.70;;;;;;5010253;28;20439;-63
2022/03/21 12:48:31;;;;;;;8.32;7.43;;;20.40;24.50;;;;;;5007793;28;20127;-62
2022/03/21 12:50:57;;;;;;;7.78;6.97;;;20.30;25.40;;;;;;5011471;28;20030;-63
2022/03/21 12:53:23;;;;;;;6.80;6.20;;;20.70;25.70;;;;;;5024218;28;20041;-63
2022/03/21 12:56:03;;;;;;;8.98;6.20;;;21.10;25.70;;;;;;5019060;28;20034;-63
2022/03/21 12:58:29;;;;;;;9.32;6.13;;;21.50;25.70;;;;;;4992501;28;20523;-62
2022/03/21 13:00:56;;;;;;;6.65;5.95;;;21.90;25.30;;;;;;4991771;28;20022;-63